Terminal Aerodrome Forecast
Issued by NWS

Home | Current Version | Previous Version | Text Only | Print | Product List | Glossary Off
Versions: 1 2 3 4 5 6 7 8 9 10 11 12 13 14 15 16 17 18 19 20 21

000
FTUS43 KMPX 272300
TAFAXN
TAF
KAXN 272332Z 2800/2824 15010KT P6SM OVC070
     FM280300 14012KT 4SM -SN OVC040
     FM280400 15013KT 1 1/2SM -SN SCT010 OVC035
      TEMPO 2804/2808 3/4SM -SN OVC010
     FM280800 14012KT 6SM -SN SCT012 OVC020
     FM281500 13007KT P6SM OVC012=

USA.gov is the U.S. government's official web portal to all federal, state and local government web resources and services.